createdAt,value
2018-05-09T00:01:07.197Z,17.55
2018-05-09T00:03:34.763Z,17.53
2018-05-09T00:06:02.325Z,17.51
2018-05-09T00:08:29.897Z,17.46
2018-05-09T00:10:57.474Z,17.44
2018-05-09T00:13:25.100Z,17.43
2018-05-09T00:15:52.664Z,17.44
2018-05-09T00:18:20.317Z,17.46
2018-05-09T00:20:47.870Z,17.46
2018-05-09T00:23:15.605Z,17.49
2018-05-09T00:25:43.243Z,17.55
2018-05-09T00:28:10.800Z,17.56
2018-05-09T00:30:38.372Z,17.49
2018-05-09T00:33:05.932Z,17.46
2018-05-09T00:35:33.544Z,17.45
2018-05-09T00:38:01.106Z,17.46
2018-05-09T00:40:28.668Z,17.46
2018-05-09T00:42:56.221Z,17.40
2018-05-09T00:45:23.832Z,17.39
2018-05-09T00:47:51.405Z,17.35
2018-05-09T00:50:19.033Z,17.35
2018-05-09T00:52:46.719Z,17.33
2018-05-09T00:55:14.283Z,17.34
2018-05-09T00:57:41.857Z,17.37
2018-05-09T01:00:09.428Z,17.36
2018-05-09T01:02:37.006Z,17.39
2018-05-09T01:05:04.626Z,17.39
2018-05-09T01:07:32.188Z,17.40
2018-05-09T01:09:59.813Z,17.36
2018-05-09T01:12:27.376Z,17.35
2018-05-09T01:14:54.936Z,17.33
2018-05-09T01:17:22.553Z,17.33
2018-05-09T01:19:50.185Z,17.33
2018-05-09T01:22:17.825Z,17.32
2018-05-09T01:24:45.396Z,17.27
2018-05-09T01:27:13.059Z,17.20
2018-05-09T01:29:40.678Z,17.12
2018-05-09T01:32:08.237Z,17.04
2018-05-09T01:34:35.853Z,16.98
2018-05-09T01:37:03.485Z,16.90
2018-05-09T01:39:31.047Z,16.80
2018-05-09T01:41:58.621Z,16.74
2018-05-09T01:44:26.245Z,16.72
2018-05-09T01:46:53.859Z,16.70
2018-05-09T01:49:21.416Z,16.74
2018-05-09T01:51:49.041Z,16.77
2018-05-09T01:54:16.617Z,16.81
2018-05-09T01:56:44.241Z,16.85
2018-05-09T01:59:11.872Z,16.84
2018-05-09T02:01:39.435Z,16.81
2018-05-09T02:04:07.067Z,16.80
2018-05-09T02:06:34.698Z,16.78
2018-05-09T02:09:02.279Z,16.77
2018-05-09T02:11:29.849Z,16.79
2018-05-09T02:13:57.471Z,16.82
2018-05-09T02:16:25.115Z,16.81
2018-05-09T02:18:52.741Z,16.79
2018-05-09T02:21:21.266Z,16.78
2018-05-09T02:23:48.827Z,16.79
2018-05-09T02:26:16.394Z,16.81
2018-05-09T02:28:43.945Z,16.83
2018-05-09T02:31:11.633Z,16.86
2018-05-09T02:33:39.307Z,16.87
2018-05-09T02:36:06.870Z,16.91
2018-05-09T02:38:34.498Z,16.95
2018-05-09T02:41:02.098Z,16.91
2018-05-09T02:43:29.663Z,16.87
2018-05-09T02:45:57.298Z,16.85
2018-05-09T02:48:24.875Z,16.87
2018-05-09T02:50:52.456Z,16.91
2018-05-09T02:53:20.063Z,16.96
2018-05-09T02:55:47.741Z,16.97
2018-05-09T02:58:15.361Z,17.00
2018-05-09T03:00:42.932Z,17.01
2018-05-09T03:03:10.504Z,17.03
2018-05-09T03:05:38.089Z,17.04
2018-05-09T03:08:05.666Z,17.03
2018-05-09T03:10:33.224Z,17.04
2018-05-09T03:13:00.845Z,17.06
2018-05-09T03:15:28.409Z,17.07
2018-05-09T03:17:56.032Z,17.07
2018-05-09T03:20:23.610Z,17.07
2018-05-09T03:22:51.184Z,17.12
2018-05-09T03:25:18.824Z,17.17
2018-05-09T03:27:46.412Z,17.19
2018-05-09T03:30:14.021Z,17.23
2018-05-09T03:32:41.659Z,17.29
2018-05-09T03:35:09.253Z,17.34
2018-05-09T03:37:36.821Z,17.40
2018-05-09T03:40:04.454Z,17.49
2018-05-09T03:42:32.099Z,17.58
2018-05-09T03:44:59.668Z,17.63
2018-05-09T03:47:27.358Z,17.74
2018-05-09T03:49:54.920Z,17.80
2018-05-09T03:52:22.502Z,17.86
2018-05-09T03:54:50.141Z,17.88
2018-05-09T03:57:17.723Z,17.83
2018-05-09T03:59:45.296Z,17.82
2018-05-09T04:02:24.584Z,17.86
2018-05-09T04:05:04.102Z,17.96
2018-05-09T04:07:43.644Z,18.04
2018-05-09T04:10:11.212Z,18.14
2018-05-09T04:12:38.832Z,18.24
2018-05-09T04:15:06.528Z,18.28
2018-05-09T04:17:34.153Z,18.23
2018-05-09T04:20:01.777Z,18.30
2018-05-09T04:22:29.348Z,18.43
2018-05-09T04:24:56.917Z,18.56
2018-05-09T04:27:24.466Z,18.77
2018-05-09T04:29:52.088Z,19.16
2018-05-09T04:32:19.652Z,19.48
2018-05-09T04:34:47.213Z,19.83
2018-05-09T04:37:14.828Z,20.47
2018-05-09T04:39:42.480Z,21.98
2018-05-09T04:42:10.051Z,23.49
2018-05-09T04:44:37.677Z,24.18
2018-05-09T04:47:05.233Z,25.31
2018-05-09T04:49:32.800Z,25.93
2018-05-09T04:52:00.356Z,26.92
2018-05-09T04:54:28.041Z,27.82
2018-05-09T04:56:55.605Z,28.78
2018-05-09T04:59:23.164Z,29.70
2018-05-09T05:01:50.813Z,29.75
2018-05-09T05:04:18.445Z,30.39
2018-05-09T05:06:46.019Z,31.04
2018-05-09T05:09:13.651Z,31.72
2018-05-09T05:11:41.383Z,31.23
2018-05-09T05:14:08.943Z,29.53
2018-05-09T05:16:36.560Z,28.28
2018-05-09T05:19:04.131Z,27.41
2018-05-09T05:21:31.696Z,26.60
2018-05-09T05:23:59.320Z,25.69
2018-05-09T05:26:26.938Z,24.91
2018-05-09T05:28:54.533Z,24.36
2018-05-09T05:31:22.083Z,23.95
2018-05-09T05:33:49.646Z,23.75
2018-05-09T05:36:17.280Z,23.60
2018-05-09T05:38:44.921Z,23.65
2018-05-09T05:41:12.442Z,23.52
2018-05-09T05:43:40.009Z,23.32
2018-05-09T05:46:07.625Z,23.45
2018-05-09T05:48:35.241Z,23.42
2018-05-09T05:51:02.796Z,23.49
2018-05-09T05:53:30.367Z,23.51
2018-05-09T05:55:58.023Z,23.39
2018-05-09T05:58:25.588Z,23.09
2018-05-09T06:00:53.205Z,23.03
2018-05-09T06:03:20.781Z,23.13
2018-05-09T06:05:48.351Z,23.39
2018-05-09T06:08:15.993Z,23.65
2018-05-09T06:10:43.642Z,23.75
2018-05-09T06:13:11.261Z,23.78
2018-05-09T06:15:38.832Z,23.75
2018-05-09T06:18:06.405Z,23.58
2018-05-09T06:20:33.964Z,23.21
2018-05-09T06:23:01.534Z,22.89
2018-05-09T06:25:29.101Z,22.81
2018-05-09T06:27:56.665Z,22.85
2018-05-09T06:30:24.224Z,22.90
2018-05-09T06:32:51.805Z,22.98
2018-05-09T06:35:19.357Z,22.89
2018-05-09T06:37:47.042Z,22.88
2018-05-09T06:40:14.577Z,22.74
2018-05-09T06:42:42.140Z,22.77
2018-05-09T06:45:09.769Z,22.83
2018-05-09T06:47:37.341Z,23.00
2018-05-09T06:50:04.953Z,23.13
2018-05-09T06:52:32.559Z,23.07
2018-05-09T06:55:00.190Z,22.98
2018-05-09T06:57:27.758Z,22.98
2018-05-09T06:59:55.401Z,23.16
2018-05-09T07:02:22.969Z,23.48
2018-05-09T07:04:50.529Z,23.70
2018-05-09T07:07:18.163Z,23.83
2018-05-09T07:09:45.827Z,24.07
2018-05-09T07:12:13.441Z,24.30
2018-05-09T07:14:41.012Z,24.29
2018-05-09T07:17:08.589Z,24.47
2018-05-09T07:19:36.207Z,24.60
2018-05-09T07:22:03.839Z,24.58
2018-05-09T07:24:31.402Z,24.61
2018-05-09T07:26:58.976Z,24.57
2018-05-09T07:29:26.532Z,24.55
2018-05-09T07:31:54.096Z,24.57
2018-05-09T07:34:21.661Z,24.43
2018-05-09T07:36:49.224Z,24.49
2018-05-09T07:39:16.796Z,24.70
2018-05-09T07:41:44.427Z,24.82
2018-05-09T07:44:12.009Z,24.98
2018-05-09T07:46:39.574Z,25.17
2018-05-09T07:49:07.136Z,25.47
2018-05-09T07:51:34.837Z,25.47
2018-05-09T07:54:02.398Z,25.51
2018-05-09T07:56:30.016Z,25.38
2018-05-09T07:58:57.637Z,25.50
2018-05-09T08:01:25.220Z,25.66
2018-05-09T08:03:52.846Z,26.02
2018-05-09T08:06:20.473Z,26.03
2018-05-09T08:08:48.145Z,26.08
2018-05-09T08:11:15.696Z,26.00
2018-05-09T08:13:43.260Z,25.92
2018-05-09T08:16:10.829Z,26.00
2018-05-09T08:18:38.392Z,26.19
2018-05-09T08:21:06.040Z,26.47
2018-05-09T08:23:33.608Z,26.43
2018-05-09T08:26:01.165Z,26.65
2018-05-09T08:28:28.815Z,26.74
2018-05-09T08:30:56.388Z,26.76
2018-05-09T08:33:24.000Z,26.52
2018-05-09T08:35:51.559Z,26.58
2018-05-09T08:38:19.179Z,26.58
2018-05-09T08:40:46.745Z,26.41
2018-05-09T08:43:14.338Z,26.45
2018-05-09T08:45:42.020Z,26.52
2018-05-09T08:48:09.584Z,26.58
2018-05-09T08:50:37.144Z,26.78
2018-05-09T08:53:04.825Z,26.88
2018-05-09T08:55:32.411Z,27.38
2018-05-09T08:58:00.032Z,27.62
2018-05-09T09:00:27.650Z,27.73
2018-05-09T09:02:55.269Z,27.82
2018-05-09T09:05:22.841Z,28.23
2018-05-09T09:07:50.465Z,28.08
2018-05-09T09:10:18.072Z,27.77
2018-05-09T09:12:45.632Z,27.55
2018-05-09T09:15:13.234Z,27.29
2018-05-09T09:17:40.865Z,27.00
2018-05-09T09:20:08.442Z,26.70
2018-05-09T09:22:36.060Z,26.56
2018-05-09T09:25:03.625Z,26.34
2018-05-09T09:27:31.241Z,26.10
2018-05-09T09:29:58.804Z,26.06
2018-05-09T09:32:26.360Z,25.94
2018-05-09T09:34:53.973Z,25.84
2018-05-09T09:37:21.573Z,25.73
2018-05-09T09:39:50.053Z,25.63
2018-05-09T09:42:17.669Z,25.76
2018-05-09T09:44:45.256Z,25.81
2018-05-09T09:47:13.021Z,25.83
2018-05-09T09:49:40.573Z,25.59
2018-05-09T09:52:08.132Z,25.69
2018-05-09T09:54:35.697Z,25.47
2018-05-09T09:57:03.321Z,25.18
2018-05-09T09:59:30.992Z,25.21
2018-05-09T10:01:58.596Z,25.43
2018-05-09T10:04:26.161Z,25.54
2018-05-09T10:06:53.790Z,25.69
2018-05-09T10:09:21.396Z,25.74
2018-05-09T10:11:49.073Z,25.93
2018-05-09T10:14:16.646Z,26.45
2018-05-09T10:16:44.313Z,26.74
2018-05-09T10:19:11.877Z,26.63
2018-05-09T10:21:39.461Z,26.52
2018-05-09T10:24:07.081Z,26.71
2018-05-09T10:26:34.641Z,26.72
2018-05-09T10:29:02.264Z,26.52
2018-05-09T10:31:29.905Z,26.65
2018-05-09T10:33:57.585Z,26.79
2018-05-09T10:36:25.191Z,26.81
2018-05-09T10:38:52.814Z,26.64
2018-05-09T10:41:20.460Z,26.81
2018-05-09T10:43:48.029Z,26.92
2018-05-09T10:46:15.583Z,27.21
2018-05-09T10:48:43.249Z,27.23
2018-05-09T10:51:10.868Z,27.62
2018-05-09T10:53:38.425Z,27.81
2018-05-09T10:56:06.013Z,27.77
2018-05-09T10:58:33.569Z,27.86
2018-05-09T11:01:01.188Z,28.20
2018-05-09T11:03:28.801Z,28.47
2018-05-09T11:05:56.357Z,28.67
2018-05-09T11:08:23.917Z,28.39
2018-05-09T11:10:51.565Z,28.06
2018-05-09T11:13:19.176Z,28.11
2018-05-09T11:15:46.733Z,28.11
2018-05-09T11:18:14.355Z,28.29
2018-05-09T11:20:41.920Z,28.16
2018-05-09T11:23:09.540Z,28.19
2018-05-09T11:25:37.148Z,28.19
2018-05-09T11:28:04.719Z,28.16
2018-05-09T11:30:32.295Z,28.04
2018-05-09T11:32:59.868Z,28.27
2018-05-09T11:35:27.489Z,28.63
2018-05-09T11:37:55.163Z,28.76
2018-05-09T11:40:22.736Z,28.76
2018-05-09T11:42:50.371Z,28.62
2018-05-09T11:45:17.944Z,28.64
2018-05-09T11:47:45.505Z,28.57
2018-05-09T11:50:13.072Z,28.29
2018-05-09T11:52:40.635Z,28.34
2018-05-09T11:55:08.309Z,27.92
2018-05-09T11:57:35.925Z,28.17
2018-05-09T12:00:03.609Z,28.39
2018-05-09T12:02:31.215Z,28.52
2018-05-09T12:04:58.789Z,28.64
2018-05-09T12:07:26.436Z,28.48
2018-05-09T12:09:54.015Z,28.69
2018-05-09T12:12:21.629Z,28.99
2018-05-09T12:14:49.277Z,29.58
2018-05-09T12:17:16.833Z,30.14
2018-05-09T12:19:44.460Z,31.14
2018-05-09T12:22:12.161Z,32.12
2018-05-09T12:24:39.819Z,33.85
2018-05-09T12:27:07.389Z,34.58
2018-05-09T12:29:35.071Z,34.82
2018-05-09T12:32:02.693Z,33.51
2018-05-09T12:34:30.262Z,33.02
2018-05-09T12:36:57.828Z,31.70
2018-05-09T12:39:25.484Z,31.04
2018-05-09T12:41:53.189Z,30.25
2018-05-09T12:44:20.859Z,29.99
2018-05-09T12:46:48.571Z,29.62
2018-05-09T12:49:16.128Z,30.20
2018-05-09T12:51:43.753Z,32.47
2018-05-09T12:54:11.325Z,33.94
2018-05-09T12:56:38.882Z,35.17
2018-05-09T12:59:06.453Z,35.67
2018-05-09T13:01:34.018Z,35.83
2018-05-09T13:04:01.637Z,36.50
2018-05-09T13:06:29.200Z,35.84
2018-05-09T13:08:56.835Z,36.08
2018-05-09T13:11:24.466Z,35.12
2018-05-09T13:13:52.025Z,34.73
2018-05-09T13:16:19.653Z,34.53
2018-05-09T13:18:47.236Z,33.70
2018-05-09T13:21:14.872Z,32.93
2018-05-09T13:23:42.428Z,32.30
2018-05-09T13:26:10.004Z,31.41
2018-05-09T13:28:37.576Z,31.02
2018-05-09T13:31:05.237Z,30.71
2018-05-09T13:33:32.817Z,30.16
2018-05-09T13:36:00.453Z,29.77
2018-05-09T13:38:28.204Z,29.13
2018-05-09T13:40:55.754Z,28.67
2018-05-09T13:43:23.372Z,28.46
2018-05-09T13:45:51.001Z,28.47
2018-05-09T13:48:18.561Z,28.80
2018-05-09T13:50:46.136Z,29.46
2018-05-09T13:53:13.787Z,29.56
2018-05-09T13:55:41.472Z,28.86
2018-05-09T13:58:09.037Z,28.14
2018-05-09T14:00:36.604Z,28.02
2018-05-09T14:03:04.177Z,27.79
2018-05-09T14:05:31.741Z,27.45
2018-05-09T14:07:59.309Z,26.92
2018-05-09T14:10:26.868Z,26.31
2018-05-09T14:12:54.545Z,26.00
2018-05-09T14:15:22.239Z,25.72
2018-05-09T14:17:49.860Z,25.55
2018-05-09T14:20:17.512Z,24.57
2018-05-09T14:22:45.072Z,23.93
2018-05-09T14:25:12.706Z,23.38
2018-05-09T14:27:40.425Z,22.96
2018-05-09T14:30:08.113Z,22.88
2018-05-09T14:32:35.685Z,22.86
2018-05-09T14:35:03.326Z,22.96
2018-05-09T14:37:30.900Z,23.09
2018-05-09T14:39:58.461Z,23.24
2018-05-09T14:42:26.089Z,23.42
2018-05-09T14:44:53.660Z,23.41
2018-05-09T14:47:21.296Z,23.19
2018-05-09T14:49:48.872Z,23.35
2018-05-09T14:52:16.476Z,23.37
2018-05-09T14:54:44.076Z,23.12
2018-05-09T14:57:11.631Z,23.05
2018-05-09T14:59:39.210Z,23.03
2018-05-09T15:02:06.817Z,23.01
2018-05-09T15:04:35.380Z,23.02
2018-05-09T15:07:03.010Z,22.97
2018-05-09T15:09:30.573Z,22.91
2018-05-09T15:11:58.186Z,22.88
2018-05-09T15:14:25.757Z,22.91
2018-05-09T15:16:53.474Z,22.74
2018-05-09T15:19:21.050Z,22.62
2018-05-09T15:21:48.721Z,22.47
2018-05-09T15:24:16.353Z,22.53
2018-05-09T15:26:43.924Z,22.42
2018-05-09T15:29:11.492Z,22.32
2018-05-09T15:31:39.057Z,22.27
2018-05-09T15:34:06.682Z,22.11
2018-05-09T15:36:34.311Z,22.02
2018-05-09T15:39:02.035Z,22.00
2018-05-09T15:41:29.573Z,22.00
2018-05-09T15:43:57.144Z,21.98
2018-05-09T15:46:24.712Z,22.00
2018-05-09T15:48:52.278Z,22.10
2018-05-09T15:51:19.870Z,22.23
2018-05-09T15:53:47.509Z,22.40
2018-05-09T15:56:15.198Z,22.38
2018-05-09T15:58:42.803Z,22.31
2018-05-09T16:01:10.434Z,22.27
2018-05-09T16:03:38.000Z,22.22
2018-05-09T16:06:05.560Z,22.17
2018-05-09T16:08:33.189Z,22.22
2018-05-09T16:11:00.752Z,22.28
2018-05-09T16:13:28.429Z,22.32
2018-05-09T16:15:55.992Z,22.36
2018-05-09T16:18:23.552Z,22.18
2018-05-09T16:20:51.185Z,22.07
2018-05-09T16:23:18.744Z,21.95
2018-05-09T16:25:46.376Z,21.89
2018-05-09T16:28:13.948Z,21.86
2018-05-09T16:30:41.630Z,21.72
2018-05-09T16:33:09.265Z,21.57
2018-05-09T16:35:36.820Z,21.44
2018-05-09T16:38:04.396Z,21.38
2018-05-09T16:40:31.965Z,21.30
2018-05-09T16:42:59.537Z,21.18
2018-05-09T16:45:27.171Z,21.08
2018-05-09T16:47:54.788Z,21.01
2018-05-09T16:50:22.355Z,20.90
2018-05-09T16:52:49.912Z,20.87
2018-05-09T16:55:17.549Z,20.85
2018-05-09T16:57:45.167Z,20.79
2018-05-09T17:00:12.780Z,20.76
2018-05-09T17:02:40.358Z,20.67
2018-05-09T17:05:07.921Z,20.62
2018-05-09T17:07:35.513Z,20.63
2018-05-09T17:10:03.074Z,20.56
2018-05-09T17:12:30.740Z,20.56
2018-05-09T17:14:58.309Z,20.55
2018-05-09T17:17:25.880Z,20.51
2018-05-09T17:19:53.457Z,20.37
2018-05-09T17:22:32.744Z,20.24
2018-05-09T17:25:00.308Z,20.10
2018-05-09T17:27:27.869Z,20.02
2018-05-09T17:29:55.449Z,19.92
2018-05-09T17:32:23.015Z,19.83
2018-05-09T17:34:50.579Z,19.76
2018-05-09T17:37:18.199Z,19.74
2018-05-09T17:39:45.752Z,19.73
2018-05-09T17:42:13.328Z,19.71
2018-05-09T17:44:40.950Z,19.67
2018-05-09T17:47:08.516Z,19.64
2018-05-09T17:49:36.092Z,19.61
2018-05-09T17:52:03.721Z,19.61
2018-05-09T17:54:31.351Z,19.64
2018-05-09T17:56:58.907Z,19.65
2018-05-09T17:59:26.460Z,19.70
2018-05-09T18:01:54.028Z,19.73
2018-05-09T18:04:21.669Z,19.74
2018-05-09T18:06:49.226Z,19.78
2018-05-09T18:09:16.787Z,19.79
2018-05-09T18:11:44.460Z,19.78
2018-05-09T18:14:12.053Z,19.83
2018-05-09T18:16:39.614Z,19.83
2018-05-09T18:19:07.237Z,19.87
2018-05-09T18:21:34.891Z,19.91
2018-05-09T18:24:02.537Z,19.94
2018-05-09T18:26:30.104Z,19.97
2018-05-09T18:28:57.785Z,20.00
2018-05-09T18:31:25.325Z,20.00
2018-05-09T18:33:52.885Z,20.04
2018-05-09T18:36:20.504Z,20.02
2018-05-09T18:38:48.072Z,20.01
2018-05-09T18:41:15.640Z,19.99
2018-05-09T18:43:43.210Z,19.97
2018-05-09T18:46:10.864Z,19.95
2018-05-09T18:48:38.433Z,19.94
2018-05-09T18:51:06.063Z,19.93
2018-05-09T18:53:33.690Z,19.90
2018-05-09T18:56:01.249Z,19.87
2018-05-09T18:58:28.823Z,19.84
2018-05-09T19:00:56.432Z,19.77
2018-05-09T19:03:24.049Z,19.72
2018-05-09T19:05:52.599Z,19.70
2018-05-09T19:08:20.257Z,19.66
2018-05-09T19:10:47.893Z,19.62
2018-05-09T19:13:15.451Z,19.60
2018-05-09T19:15:43.062Z,19.56
2018-05-09T19:18:10.660Z,19.55
2018-05-09T19:20:38.280Z,19.54
2018-05-09T19:23:05.967Z,19.53
2018-05-09T19:25:33.609Z,19.53
2018-05-09T19:28:01.251Z,19.51
2018-05-09T19:30:28.822Z,19.52
2018-05-09T19:32:56.393Z,19.51
2018-05-09T19:35:23.954Z,19.51
2018-05-09T19:37:51.637Z,19.49
2018-05-09T19:40:19.268Z,19.44
2018-05-09T19:42:46.825Z,19.39
2018-05-09T19:45:14.449Z,19.40
2018-05-09T19:47:42.020Z,19.38
2018-05-09T19:50:09.591Z,19.36
2018-05-09T19:52:37.152Z,19.35
2018-05-09T19:55:04.891Z,19.33
2018-05-09T19:57:32.430Z,19.32
2018-05-09T20:00:00.073Z,19.25
2018-05-09T20:02:27.657Z,19.26
2018-05-09T20:04:55.283Z,19.21
2018-05-09T20:07:22.844Z,19.19
2018-05-09T20:09:50.405Z,19.17
2018-05-09T20:12:18.036Z,19.17
2018-05-09T20:14:45.600Z,19.14
2018-05-09T20:17:13.151Z,19.09
2018-05-09T20:19:40.726Z,19.14
2018-05-09T20:22:08.349Z,19.11
2018-05-09T20:24:35.917Z,19.13
2018-05-09T20:27:03.477Z,19.12
2018-05-09T20:29:31.093Z,19.12
2018-05-09T20:32:10.573Z,19.10
2018-05-09T20:34:38.255Z,19.08
2018-05-09T20:37:05.877Z,19.02
2018-05-09T20:39:33.521Z,18.97
2018-05-09T20:42:01.167Z,18.97
2018-05-09T20:44:28.817Z,18.94
2018-05-09T20:46:56.442Z,18.93
2018-05-09T20:49:24.068Z,18.90
2018-05-09T20:51:51.755Z,18.89
2018-05-09T20:54:19.396Z,18.88
2018-05-09T20:56:46.893Z,18.83
2018-05-09T20:59:14.527Z,18.81
2018-05-09T21:01:48.149Z,18.78
2018-05-09T21:04:15.716Z,18.73
2018-05-09T21:06:43.461Z,18.71
2018-05-09T21:09:11.035Z,18.70
2018-05-09T21:11:38.619Z,18.71
2018-05-09T21:14:06.266Z,18.69
2018-05-09T21:16:33.833Z,18.67
2018-05-09T21:19:01.406Z,18.65
2018-05-09T21:21:28.968Z,18.61
2018-05-09T21:23:56.538Z,18.59
2018-05-09T21:26:24.107Z,18.59
2018-05-09T21:28:51.669Z,18.52
2018-05-09T21:31:19.356Z,18.51
2018-05-09T21:33:46.912Z,18.49
2018-05-09T21:36:14.494Z,18.52
2018-05-09T21:38:42.121Z,18.52
2018-05-09T21:41:09.762Z,18.49
2018-05-09T21:43:37.288Z,18.49
2018-05-09T21:46:04.844Z,18.48
2018-05-09T21:48:32.448Z,18.49
2018-05-09T21:51:00.014Z,18.47
2018-05-09T21:53:27.583Z,18.49
2018-05-09T21:55:55.252Z,18.54
2018-05-09T21:58:22.820Z,18.62
2018-05-09T22:00:50.446Z,18.67
2018-05-09T22:03:18.080Z,18.69
2018-05-09T22:05:45.644Z,18.70
2018-05-09T22:08:13.216Z,18.75
2018-05-09T22:10:40.773Z,18.76
2018-05-09T22:13:08.357Z,18.76
2018-05-09T22:15:35.920Z,18.78
2018-05-09T22:18:03.540Z,18.78
2018-05-09T22:20:31.095Z,18.80
2018-05-09T22:22:58.667Z,18.77
2018-05-09T22:25:26.232Z,18.75
2018-05-09T22:27:53.792Z,18.72
2018-05-09T22:30:21.364Z,18.74
2018-05-09T22:32:48.901Z,18.73
2018-05-09T22:35:16.494Z,18.74
2018-05-09T22:37:44.063Z,18.75
2018-05-09T22:40:11.664Z,18.77
2018-05-09T22:42:39.289Z,18.73
2018-05-09T22:45:06.848Z,18.72
2018-05-09T22:47:34.491Z,18.69
2018-05-09T22:50:02.056Z,18.70
2018-05-09T22:52:29.745Z,18.67
2018-05-09T22:54:57.390Z,18.63
2018-05-09T22:57:24.953Z,18.62
2018-05-09T22:59:52.520Z,18.59
2018-05-09T23:02:20.141Z,18.54
2018-05-09T23:04:47.765Z,18.51
2018-05-09T23:07:15.316Z,18.50
2018-05-09T23:09:42.925Z,18.51
2018-05-09T23:12:10.540Z,18.51
2018-05-09T23:14:38.104Z,18.58
2018-05-09T23:17:05.667Z,18.61
2018-05-09T23:19:33.344Z,18.59
2018-05-09T23:22:00.969Z,18.51
2018-05-09T23:24:28.629Z,18.55
2018-05-09T23:26:56.254Z,18.59
2018-05-09T23:29:23.813Z,18.60
2018-05-09T23:31:51.441Z,18.57
2018-05-09T23:34:19.013Z,18.57
2018-05-09T23:36:46.568Z,18.56
2018-05-09T23:39:14.195Z,18.57
2018-05-09T23:41:41.813Z,18.60
2018-05-09T23:44:09.424Z,18.61
2018-05-09T23:46:37.045Z,18.61
2018-05-09T23:49:04.604Z,18.59
2018-05-09T23:51:32.173Z,18.60
2018-05-09T23:53:59.733Z,18.61
2018-05-09T23:56:27.437Z,18.55
2018-05-09T23:58:55.049Z,18.54
